createdAt,value
2023-02-14T00:01:39.299Z,37.10
2023-02-14T00:04:08.198Z,37.03
2023-02-14T00:06:39.938Z,37.02
2023-02-14T00:09:14.913Z,36.80
2023-02-14T00:11:49.940Z,36.81
2023-02-14T00:14:38.221Z,36.87
2023-02-14T00:17:07.035Z,36.85
2023-02-14T00:19:37.308Z,36.70
2023-02-14T00:22:06.425Z,36.75
2023-02-14T00:24:35.521Z,36.85
2023-02-14T00:27:04.606Z,36.89
2023-02-14T00:29:33.668Z,36.89
2023-02-14T00:32:03.349Z,36.83
2023-02-14T00:34:33.636Z,36.91
2023-02-14T00:37:19.045Z,36.93
2023-02-14T00:39:48.019Z,36.94
2023-02-14T00:42:16.759Z,36.98
2023-02-14T00:44:47.487Z,36.84
2023-02-14T00:47:16.233Z,36.90
2023-02-14T00:49:44.725Z,36.97
2023-02-14T00:52:12.935Z,37.19
2023-02-14T00:54:42.126Z,36.93
2023-02-14T00:57:10.568Z,36.95
2023-02-14T00:59:39.816Z,37.10
2023-02-14T01:02:08.672Z,36.90
2023-02-14T01:04:37.102Z,36.86
2023-02-14T01:07:06.106Z,37.00
2023-02-14T01:09:34.165Z,36.99
2023-02-14T01:12:04.230Z,37.00
2023-02-14T01:14:32.399Z,36.90
2023-02-14T01:17:02.656Z,36.66
2023-02-14T01:19:31.454Z,36.54
2023-02-14T01:22:01.639Z,36.55
2023-02-14T01:24:30.353Z,36.56
2023-02-14T01:27:01.802Z,36.59
2023-02-14T01:29:30.541Z,36.56
2023-02-14T01:31:58.677Z,36.55
2023-02-14T01:34:48.087Z,36.57
2023-02-14T01:37:16.389Z,36.65
2023-02-14T01:39:45.232Z,36.62
2023-02-14T01:42:16.217Z,36.62
2023-02-14T01:44:47.831Z,36.70
2023-02-14T01:47:17.000Z,36.57
2023-02-14T01:49:53.100Z,36.48
2023-02-14T01:52:35.497Z,36.45
2023-02-14T01:55:09.409Z,36.42
2023-02-14T01:57:38.851Z,36.42
2023-02-14T02:00:26.419Z,36.34
2023-02-14T02:02:56.269Z,36.23
2023-02-14T02:05:24.587Z,36.16
2023-02-14T02:07:52.993Z,36.12
2023-02-14T02:10:21.501Z,36.16
2023-02-14T02:12:51.620Z,36.10
2023-02-14T02:15:22.011Z,36.23
2023-02-14T02:18:07.352Z,36.30
2023-02-14T02:20:53.998Z,36.28
2023-02-14T02:23:39.841Z,36.20
2023-02-14T02:26:27.136Z,36.11
2023-02-14T02:29:16.302Z,36.24
2023-02-14T02:32:21.956Z,36.26
2023-02-14T02:35:20.725Z,36.22
2023-02-14T02:38:14.480Z,36.16
2023-02-14T02:41:24.464Z,36.24
2023-02-14T02:44:03.441Z,36.20
2023-02-14T02:46:48.143Z,36.26
2023-02-14T02:49:56.742Z,36.33
2023-02-14T02:53:13.273Z,36.35
2023-02-14T02:56:38.272Z,36.41
2023-02-14T02:59:18.335Z,36.56
2023-02-14T03:01:53.853Z,36.53
2023-02-14T03:04:41.716Z,36.46
2023-02-14T03:07:28.438Z,36.67
2023-02-14T03:14:30.169Z,36.66
2023-02-14T03:17:05.557Z,36.60
2023-02-14T03:20:16.031Z,36.73
2023-02-14T03:22:50.215Z,36.81
2023-02-14T03:25:25.618Z,36.84
2023-02-14T03:28:32.499Z,37.01
2023-02-14T03:31:20.983Z,37.16
2023-02-14T03:34:09.626Z,37.34
2023-02-14T03:36:41.275Z,37.73
2023-02-14T03:39:14.336Z,38.00
2023-02-14T03:41:50.270Z,38.36
2023-02-14T03:44:20.200Z,38.79
2023-02-14T03:46:51.734Z,39.24
2023-02-14T03:49:22.470Z,39.41
2023-02-14T03:51:51.436Z,39.66
2023-02-14T03:54:19.540Z,39.81
2023-02-14T03:56:53.329Z,40.20
2023-02-14T03:59:25.692Z,40.43
2023-02-14T04:02:07.696Z,40.62
2023-02-14T04:04:39.836Z,40.65
2023-02-14T04:07:17.374Z,40.62
2023-02-14T04:09:49.624Z,40.48
2023-02-14T04:12:32.376Z,40.49
2023-02-14T04:15:07.618Z,40.70
2023-02-14T04:18:02.170Z,40.52
2023-02-14T04:20:34.590Z,40.50
2023-02-14T04:23:04.998Z,40.42
2023-02-14T04:25:36.343Z,40.31
2023-02-14T04:28:06.220Z,40.12
2023-02-14T04:30:37.253Z,39.88
2023-02-14T04:33:11.036Z,39.77
2023-02-14T04:35:42.288Z,39.70
2023-02-14T04:38:12.608Z,39.56
2023-02-14T04:40:43.835Z,39.53
2023-02-14T04:43:15.613Z,39.45
2023-02-14T04:45:47.678Z,39.48
2023-02-14T04:48:19.167Z,39.55
2023-02-14T04:50:56.665Z,39.43
2023-02-14T04:53:27.705Z,39.44
2023-02-14T04:55:58.504Z,39.44
2023-02-14T04:58:29.718Z,39.60
2023-02-14T05:01:00.582Z,39.61
2023-02-14T05:11:08.458Z,39.90
2023-02-14T05:13:36.777Z,40.07
2023-02-14T05:16:08.697Z,40.16
2023-02-14T05:18:36.831Z,40.16
2023-02-14T05:21:05.565Z,40.20
2023-02-14T05:23:33.519Z,40.15
2023-02-14T05:26:01.546Z,40.07
2023-02-14T05:28:30.024Z,39.94
2023-02-14T05:30:59.084Z,39.94
2023-02-14T05:33:28.434Z,39.95
2023-02-14T05:35:59.954Z,39.93
2023-02-14T05:38:28.299Z,40.00
2023-02-14T05:40:56.998Z,39.99
2023-02-14T05:43:26.408Z,39.98
2023-02-14T05:45:58.093Z,39.80
2023-02-14T05:48:26.286Z,39.47
2023-02-14T05:50:54.524Z,39.30
2023-02-14T05:53:23.810Z,39.25
2023-02-14T05:55:52.013Z,39.29
2023-02-14T05:58:20.354Z,39.28
2023-02-14T06:00:48.557Z,39.13
2023-02-14T06:03:18.511Z,39.03
2023-02-14T06:05:47.195Z,38.91
2023-02-14T06:08:15.323Z,38.69
2023-02-14T06:10:43.523Z,38.32
2023-02-14T06:13:12.000Z,38.16
2023-02-14T06:15:41.173Z,38.16
2023-02-14T06:18:09.337Z,38.15
2023-02-14T06:20:37.812Z,38.08
2023-02-14T06:23:06.413Z,37.90
2023-02-14T06:25:36.980Z,37.70
2023-02-14T06:28:10.642Z,37.78
2023-02-14T06:30:40.641Z,37.55
2023-02-14T06:33:09.072Z,37.55
2023-02-14T06:35:37.478Z,37.51
2023-02-14T06:38:05.634Z,37.16
2023-02-14T06:40:33.682Z,36.84
2023-02-14T06:43:01.965Z,36.78
2023-02-14T06:45:30.112Z,36.59
2023-02-14T06:48:00.180Z,36.65
2023-02-14T06:50:28.568Z,36.62
2023-02-14T06:52:57.044Z,36.63
2023-02-14T06:55:25.519Z,36.48
2023-02-14T06:57:56.182Z,36.45
2023-02-14T07:00:25.145Z,36.37
2023-02-14T07:02:53.864Z,36.24
2023-02-14T07:05:22.132Z,36.33
2023-02-14T07:07:53.980Z,36.23
2023-02-14T07:10:22.354Z,36.18
2023-02-14T07:12:50.717Z,36.04
2023-02-14T07:15:19.124Z,35.95
2023-02-14T07:17:47.289Z,35.98
2023-02-14T07:20:19.259Z,35.76
2023-02-14T07:22:47.724Z,35.99
2023-02-14T07:25:16.187Z,35.99
2023-02-14T07:27:44.576Z,35.89
2023-02-14T07:30:13.953Z,35.34
2023-02-14T07:32:42.183Z,35.27
2023-02-14T07:35:10.938Z,35.06
2023-02-14T07:37:39.441Z,34.78
2023-02-14T07:40:14.339Z,34.40
2023-02-14T07:42:43.780Z,34.34
2023-02-14T07:45:21.894Z,33.95
2023-02-14T07:47:51.684Z,33.90
2023-02-14T07:50:20.763Z,34.07
2023-02-14T07:52:49.105Z,33.87
2023-02-14T07:55:17.541Z,33.47
2023-02-14T07:57:48.313Z,33.62
2023-02-14T08:00:17.052Z,33.46
2023-02-14T08:02:45.494Z,33.31
2023-02-14T08:05:15.114Z,33.32
2023-02-14T08:07:44.441Z,33.35
2023-02-14T08:10:13.251Z,33.55
2023-02-14T08:13:00.437Z,33.32
2023-02-14T08:15:51.505Z,32.91
2023-02-14T08:18:21.120Z,32.61
2023-02-14T08:20:50.011Z,32.60
2023-02-14T08:23:18.950Z,33.04
2023-02-14T08:25:51.900Z,32.99
2023-02-14T08:28:23.241Z,33.07
2023-02-14T08:30:52.688Z,32.77
2023-02-14T08:33:20.820Z,32.46
2023-02-14T08:35:49.780Z,32.37
2023-02-14T08:38:17.919Z,32.37
2023-02-14T08:40:46.382Z,32.12
2023-02-14T08:43:14.828Z,31.93
2023-02-14T08:46:55.364Z,34.08
2023-02-14T08:49:24.227Z,32.64
2023-02-14T08:51:52.341Z,32.63
2023-02-14T08:54:20.773Z,32.49
2023-02-14T08:56:48.913Z,31.98
2023-02-14T08:59:17.241Z,32.03
2023-02-14T09:01:46.321Z,32.22
2023-02-14T09:04:19.015Z,32.27
2023-02-14T09:06:47.647Z,32.01
2023-02-14T09:09:17.629Z,31.83
2023-02-14T09:11:47.023Z,31.85
2023-02-14T09:14:23.692Z,31.70
2023-02-14T09:16:53.965Z,31.49
2023-02-14T09:19:22.148Z,31.48
2023-02-14T09:21:50.282Z,31.38
2023-02-14T09:24:39.089Z,31.22
2023-02-14T09:27:07.508Z,30.85
2023-02-14T09:29:36.388Z,31.09
2023-02-14T09:32:06.895Z,30.91
2023-02-14T09:34:36.737Z,30.98
2023-02-14T09:37:06.469Z,30.85
2023-02-14T09:39:36.596Z,31.08
2023-02-14T09:42:46.525Z,31.52
2023-02-14T09:45:41.162Z,31.20
2023-02-14T09:48:26.095Z,31.03
2023-02-14T09:51:01.370Z,31.14
2023-02-14T09:53:35.667Z,31.22
2023-02-14T09:56:08.270Z,31.44
2023-02-14T09:58:59.286Z,31.42
2023-02-14T10:01:32.806Z,31.43
2023-02-14T10:04:01.369Z,31.41
2023-02-14T10:06:39.056Z,31.48
2023-02-14T10:09:33.396Z,31.48
2023-02-14T10:12:01.591Z,31.33
2023-02-14T10:14:31.023Z,31.08
2023-02-14T10:17:12.722Z,31.41
2023-02-14T10:19:43.436Z,31.35
2023-02-14T10:22:14.698Z,31.44
2023-02-14T10:24:48.983Z,31.25
2023-02-14T10:27:31.850Z,30.88
2023-02-14T10:30:00.576Z,30.62
2023-02-14T10:32:46.922Z,30.53
2023-02-14T10:35:48.814Z,30.29
2023-02-14T10:38:47.575Z,30.27
2023-02-14T10:41:40.351Z,30.11
2023-02-14T10:44:19.744Z,29.54
2023-02-14T10:46:53.396Z,29.40
2023-02-14T10:49:30.582Z,28.75
2023-02-14T10:52:17.962Z,29.03
2023-02-14T10:54:52.123Z,29.64
2023-02-14T11:00:27.772Z,32.10
2023-02-14T11:02:58.531Z,30.11
2023-02-14T11:05:28.594Z,29.63
2023-02-14T11:07:58.360Z,29.40
2023-02-14T11:10:27.680Z,29.33
2023-02-14T11:12:54.566Z,28.80
2023-02-14T11:15:24.220Z,28.80
2023-02-14T11:18:10.214Z,28.34
2023-02-14T11:20:37.361Z,28.56
2023-02-14T11:23:18.420Z,28.67
2023-02-14T11:25:50.159Z,28.43
2023-02-14T11:28:17.255Z,28.53
2023-02-14T11:30:45.175Z,28.74
2023-02-14T11:33:28.266Z,28.98
2023-02-14T11:35:55.168Z,28.97
2023-02-14T11:38:29.936Z,28.69
2023-02-14T11:40:57.141Z,28.72
2023-02-14T11:43:36.637Z,28.34
2023-02-14T11:46:12.357Z,28.60
2023-02-14T11:49:00.845Z,28.89
2023-02-14T11:51:52.446Z,29.15
2023-02-14T11:54:35.571Z,29.06
2023-02-14T11:57:13.074Z,29.01
2023-02-14T11:59:44.793Z,28.62
2023-02-14T12:02:37.623Z,28.84
2023-02-14T12:05:15.608Z,29.02
2023-02-14T12:07:43.106Z,28.85
2023-02-14T12:10:15.128Z,28.48
2023-02-14T12:12:55.523Z,28.58
2023-02-14T12:15:33.947Z,28.37
2023-02-14T12:18:36.987Z,28.32
2023-02-14T12:21:19.392Z,28.35
2023-02-14T12:24:11.972Z,28.48
2023-02-14T12:26:54.864Z,27.83
2023-02-14T12:29:35.948Z,28.18
2023-02-14T12:32:18.422Z,28.13
2023-02-14T12:34:46.853Z,28.10
2023-02-14T12:37:19.425Z,27.83
2023-02-14T12:40:20.995Z,27.83
2023-02-14T12:43:12.364Z,27.94
2023-02-14T12:46:17.071Z,27.87
2023-02-14T12:48:50.871Z,27.94
2023-02-14T12:51:29.907Z,27.84
2023-02-14T12:54:02.555Z,27.89
2023-02-14T13:05:19.390Z,28.23
2023-02-14T13:08:23.181Z,28.37
2023-02-14T13:11:18.002Z,28.37
2023-02-14T13:14:38.007Z,28.28
2023-02-14T13:17:11.148Z,28.55
2023-02-14T13:20:17.362Z,28.61
2023-02-14T13:22:45.816Z,28.75
2023-02-14T13:25:41.027Z,28.81
2023-02-14T13:28:13.045Z,28.74
2023-02-14T13:30:43.289Z,28.68
2023-02-14T13:33:25.294Z,28.89
2023-02-14T13:35:56.193Z,28.96
2023-02-14T13:38:24.854Z,29.13
2023-02-14T13:41:01.360Z,29.35
2023-02-14T13:43:48.482Z,29.56
2023-02-14T13:46:38.265Z,29.73
2023-02-14T13:49:24.553Z,29.53
2023-02-14T13:51:55.063Z,29.47
2023-02-14T13:54:41.417Z,29.53
2023-02-14T13:57:34.343Z,29.83
2023-02-14T14:00:19.044Z,29.83
2023-02-14T14:02:47.977Z,29.88
2023-02-14T14:05:35.543Z,29.76
2023-02-14T14:08:28.387Z,29.45
2023-02-14T14:11:04.271Z,29.49
2023-02-14T14:13:42.099Z,29.47
2023-02-14T14:16:29.105Z,29.41
2023-02-14T14:18:58.794Z,29.17
2023-02-14T14:22:05.216Z,29.20
2023-02-14T14:24:41.496Z,29.29
2023-02-14T14:27:17.825Z,29.15
2023-02-14T14:29:56.170Z,28.86
2023-02-14T14:32:27.290Z,28.85
2023-02-14T14:35:01.441Z,28.90
2023-02-14T14:37:32.480Z,28.87
2023-02-14T14:40:03.148Z,28.90
2023-02-14T14:42:36.981Z,28.83
2023-02-14T14:45:08.293Z,28.66
2023-02-14T14:47:44.544Z,28.64
2023-02-14T14:50:24.903Z,28.69
2023-02-14T14:52:57.937Z,28.91
2023-02-14T14:55:30.907Z,29.03
2023-02-14T14:58:00.956Z,29.24
2023-02-14T15:00:31.646Z,29.06
2023-02-14T15:03:18.570Z,29.17
2023-02-14T15:05:49.495Z,29.16
2023-02-14T15:08:21.303Z,29.07
2023-02-14T15:10:54.580Z,29.14
2023-02-14T15:13:49.731Z,29.18
2023-02-14T15:16:22.655Z,29.27
2023-02-14T15:18:52.458Z,29.40
2023-02-14T15:21:20.793Z,29.43
2023-02-14T15:23:50.553Z,29.54
2023-02-14T15:26:31.663Z,29.53
2023-02-14T15:29:02.965Z,29.59
2023-02-14T15:31:35.257Z,29.68
2023-02-14T15:34:05.396Z,29.62
2023-02-14T15:36:34.360Z,29.64
2023-02-14T15:39:05.024Z,29.64
2023-02-14T15:41:36.247Z,29.60
2023-02-14T15:44:05.031Z,29.66
2023-02-14T15:46:38.130Z,29.71
2023-02-14T15:49:09.239Z,29.61
2023-02-14T15:51:37.570Z,29.57
2023-02-14T15:54:08.401Z,29.45
2023-02-14T15:56:41.998Z,29.37
2023-02-14T15:59:17.326Z,29.25
2023-02-14T16:02:02.618Z,29.37
2023-02-14T16:04:32.816Z,29.22
2023-02-14T16:07:24.984Z,29.23
2023-02-14T16:10:25.085Z,29.28
2023-02-14T16:12:57.412Z,29.11
2023-02-14T16:15:28.250Z,29.14
2023-02-14T16:17:56.773Z,28.97
2023-02-14T16:20:34.349Z,28.71
2023-02-14T16:23:19.444Z,28.76
2023-02-14T16:25:47.960Z,28.55
2023-02-14T16:28:16.436Z,28.41
2023-02-14T16:30:46.167Z,28.55
2023-02-14T16:33:21.161Z,28.60
2023-02-14T16:35:50.061Z,28.60
2023-02-14T16:38:19.524Z,28.47
2023-02-14T16:40:52.835Z,28.55
2023-02-14T16:43:22.055Z,28.58
2023-02-14T16:45:50.486Z,28.58
2023-02-14T16:48:18.754Z,28.38
2023-02-14T16:50:47.720Z,28.61
2023-02-14T16:53:36.366Z,28.68
2023-02-14T16:56:04.944Z,28.72
2023-02-14T16:58:34.989Z,29.07
2023-02-14T17:01:04.076Z,28.95
2023-02-14T17:03:32.948Z,29.13
2023-02-14T17:06:01.081Z,29.34
2023-02-14T17:08:29.402Z,29.43
2023-02-14T17:10:58.204Z,29.46
2023-02-14T17:13:27.290Z,29.52
2023-02-14T17:15:56.324Z,29.49
2023-02-14T17:18:25.021Z,29.50
2023-02-14T17:20:54.284Z,29.67
2023-02-14T17:23:24.505Z,29.91
2023-02-14T17:25:52.822Z,30.05
2023-02-14T17:28:21.568Z,30.09
2023-02-14T17:30:49.838Z,30.17
2023-02-14T17:33:20.178Z,30.30
2023-02-14T17:35:49.474Z,30.38
2023-02-14T17:38:18.708Z,30.31
2023-02-14T17:40:46.850Z,30.50
2023-02-14T17:43:15.592Z,30.59
2023-02-14T17:45:43.916Z,30.64
2023-02-14T17:48:12.893Z,30.76
2023-02-14T17:50:41.036Z,30.73
2023-02-14T17:53:09.669Z,30.70
2023-02-14T17:55:39.510Z,30.80
2023-02-14T17:58:07.681Z,30.76
2023-02-14T18:00:36.029Z,31.06
2023-02-14T18:03:04.266Z,31.22
2023-02-14T18:05:36.633Z,31.17
2023-02-14T18:08:06.331Z,31.44
2023-02-14T18:10:34.993Z,31.50
2023-02-14T18:13:03.489Z,31.59
2023-02-14T18:15:32.339Z,31.54
2023-02-14T18:18:01.015Z,31.65
2023-02-14T18:20:30.148Z,31.87
2023-02-14T18:22:58.475Z,31.86
2023-02-14T18:25:26.715Z,31.92
2023-02-14T18:27:55.090Z,31.95
2023-02-14T18:30:24.250Z,31.79
2023-02-14T18:32:53.796Z,31.74
2023-02-14T18:35:21.932Z,31.69
2023-02-14T18:37:50.564Z,31.70
2023-02-14T18:40:20.775Z,31.61
2023-02-14T18:42:49.248Z,31.41
2023-02-14T18:45:17.741Z,31.30
2023-02-14T18:47:45.918Z,31.34
2023-02-14T18:50:14.219Z,31.21
2023-02-14T18:52:42.912Z,31.05
2023-02-14T18:55:13.618Z,30.99
2023-02-14T18:57:42.108Z,30.84
2023-02-14T19:00:12.181Z,30.73
2023-02-14T19:02:40.545Z,30.86
2023-02-14T19:05:09.312Z,30.56
2023-02-14T19:07:38.301Z,30.72
2023-02-14T19:10:07.606Z,30.69
2023-02-14T19:12:36.070Z,30.61
2023-02-14T19:15:06.284Z,30.58
2023-02-14T19:17:39.117Z,30.55
2023-02-14T19:20:09.106Z,30.67
2023-02-14T19:22:41.422Z,30.48
2023-02-14T19:25:10.461Z,30.35
2023-02-14T19:27:39.996Z,30.26
2023-02-14T19:30:10.836Z,30.37
2023-02-14T19:32:39.015Z,30.19
2023-02-14T19:35:07.875Z,30.13
2023-02-14T19:37:36.183Z,30.21
2023-02-14T19:40:06.518Z,30.25
2023-02-14T19:42:35.779Z,30.21
2023-02-14T19:45:05.535Z,30.33
2023-02-14T19:47:46.286Z,30.29
2023-02-14T19:50:16.110Z,30.33
2023-02-14T19:52:44.874Z,30.14
2023-02-14T19:55:20.979Z,30.14
2023-02-14T19:57:49.532Z,30.03
2023-02-14T20:00:18.569Z,29.77
2023-02-14T20:02:48.318Z,29.74
2023-02-14T20:05:20.087Z,29.69
2023-02-14T20:15:30.703Z,28.84
2023-02-14T20:18:02.689Z,28.84
2023-02-14T20:20:51.146Z,29.13
2023-02-14T20:23:19.905Z,29.11
2023-02-14T20:25:48.998Z,28.98
2023-02-14T20:28:18.515Z,28.98
2023-02-14T20:30:47.175Z,28.82
2023-02-14T20:33:16.002Z,28.84
2023-02-14T20:35:45.083Z,28.78
2023-02-14T20:38:15.203Z,28.74
2023-02-14T20:40:44.909Z,28.57
2023-02-14T20:43:14.506Z,28.63
2023-02-14T20:45:42.878Z,28.56
2023-02-14T20:48:11.188Z,28.61
2023-02-14T20:50:41.304Z,28.68
2023-02-14T20:53:09.779Z,28.57
2023-02-14T20:55:41.880Z,28.50
2023-02-14T20:58:14.412Z,28.54
2023-02-14T21:00:42.628Z,28.63
2023-02-14T21:03:10.981Z,28.50
2023-02-14T21:05:40.463Z,28.46
2023-02-14T21:08:08.872Z,28.58
2023-02-14T21:10:37.462Z,28.48
2023-02-14T21:13:05.831Z,28.58
2023-02-14T21:15:37.398Z,28.56
2023-02-14T21:18:06.166Z,28.64
2023-02-14T21:20:35.693Z,28.74
2023-02-14T21:23:04.678Z,28.79
2023-02-14T21:25:33.060Z,28.78
2023-02-14T21:28:02.783Z,28.89
2023-02-14T21:30:32.975Z,28.87
2023-02-14T21:33:04.176Z,28.86
2023-02-14T21:35:36.555Z,28.94
2023-02-14T21:38:06.081Z,28.93
2023-02-14T21:40:35.201Z,29.02
2023-02-14T21:43:03.996Z,29.05
2023-02-14T21:45:51.009Z,29.04
2023-02-14T21:48:38.019Z,29.13
2023-02-14T21:51:06.844Z,29.13
2023-02-14T21:53:35.365Z,29.13
2023-02-14T21:56:07.516Z,29.27
2023-02-14T21:58:35.523Z,29.11
2023-02-14T22:01:04.868Z,29.12
2023-02-14T22:03:33.503Z,29.28
2023-02-14T22:06:03.784Z,29.32
2023-02-14T22:08:32.156Z,29.38
2023-02-14T22:11:01.278Z,29.51
2023-02-14T22:13:29.632Z,29.55
2023-02-14T22:16:06.554Z,29.56
2023-02-14T22:18:35.248Z,29.60
2023-02-14T22:21:14.186Z,29.56
2023-02-14T22:23:42.322Z,29.58
2023-02-14T22:26:26.747Z,29.58
2023-02-14T22:29:00.316Z,29.67
2023-02-14T22:31:30.239Z,29.57
2023-02-14T22:33:58.562Z,29.66
2023-02-14T22:36:26.714Z,29.57
2023-02-14T22:38:54.897Z,29.66
2023-02-14T22:41:24.048Z,29.50
2023-02-14T22:43:53.001Z,29.39
2023-02-14T22:46:26.783Z,29.36
2023-02-14T22:48:55.491Z,29.31
2023-02-14T22:51:31.060Z,29.29
2023-02-14T22:54:07.448Z,29.40
2023-02-14T22:56:40.504Z,29.25
2023-02-14T22:59:15.260Z,29.17
2023-02-14T23:01:43.867Z,29.13
2023-02-14T23:04:12.128Z,28.96
2023-02-14T23:06:41.168Z,28.95
2023-02-14T23:09:09.900Z,28.97
2023-02-14T23:11:38.927Z,28.93
2023-02-14T23:14:25.609Z,29.01
2023-02-14T23:18:08.649Z,30.75
2023-02-14T23:20:56.571Z,29.40
2023-02-14T23:23:24.828Z,29.38
2023-02-14T23:25:53.201Z,29.32
2023-02-14T23:28:23.557Z,29.24
2023-02-14T23:30:52.061Z,29.26
2023-02-14T23:33:20.289Z,29.35
2023-02-14T23:35:48.637Z,29.22
2023-02-14T23:38:17.054Z,29.19
2023-02-14T23:41:03.819Z,29.30
2023-02-14T23:43:32.554Z,29.23
2023-02-14T23:46:01.706Z,29.22
2023-02-14T23:48:30.460Z,29.20
2023-02-14T23:51:01.016Z,29.09
2023-02-14T23:53:29.516Z,29.13
2023-02-14T23:56:02.811Z,29.16
2023-02-14T23:58:31.728Z,29.15
